Gainesville, FL

7:23 PM EST on February 11, 2016 (GMT -0500)
Gainesville Regional | | Change Station
CLOSE
Current Station
Airport
Location: Gainesville,
Elevation: 151 ft
Nearby Weather Stations

Elev 151 ft 29.69 °N, 82.28 °W | Updated 30 minutes ago

Clear
Clear
58 °F
Feels Like 58 °F
N
12
Wind Variable Wind from SSW

Today
High -- | Low -- °F
--% Chance of Precip.
Yesterday
High -- | Low -- °F
Precip. -- in
Pressure 30.24 in
Visibility 10.0 miles
Clouds Clear
Dew Point 46 °F
Humidity 65%
Rainfall 0.00 in
Snow Depth Not available.
7:12 AM 6:14 PM
Waxing Crescent, 15% visible
METAR KGNV 112353Z 21010KT 10SM CLR 14/08 A3024 RMK AO2 SLP240 T01440078 10200 20144 53015
Pressure 30.24 in
Visibility 10.0 miles
Clouds Clear
Dew Point 46 °F
Humidity 65%
Rainfall 0.00 in
Snow Depth Not available.
7:12 AM 6:14 PM
Waxing Crescent, 15% visible
METAR KGNV 112353Z 21010KT 10SM CLR 14/08 A3024 RMK AO2 SLP240 T01440078 10200 20144 53015

10-Day Weather Forecast

Almanac

Astronomy

Feb. 11, 2016 Rise Set
Actual Time
Civil Twilight
Nautical Twilight
Astronomical Twilight
Moon
Length of Visible Light
Length of Day
Tomorrow will be .
, % of the Moon is Illuminated

Today's Extremes

State Highs State Lows

Community

WunderPhotos

Upload Photos

1,892,191 photos uploaded!

WunderBlog® & News

Nearby

Air Quality

  Air Quality AQ Index Pollutant
Not available.

Snow Depth

Station Depth Elevation

Earthquake Activity

City Distance Mag. Time & Date
Minimum magnitude displayed is 2.5.

Coastal Water Temperatures

Place Temperature

Stations

Nearby Weather Stations

Station Location Temp. Windchill Dew Point Humidity Wind Precip. Elev Updated Type
                   

Watches & Warnings

There are currently no watches in effect.